sensor_id;sensor_type;location;lat;lon;timestamp;temperature;humidity
45491;DHT22;31237;45.586;13.782;2022-08-03T00:01:32;23.50;61.30
45491;DHT22;31237;45.586;13.782;2022-08-03T00:03:58;23.40;61.30
45491;DHT22;31237;45.586;13.782;2022-08-03T00:06:23;23.50;61.30
45491;DHT22;31237;45.586;13.782;2022-08-03T00:08:49;23.50;61.40
45491;DHT22;31237;45.586;13.782;2022-08-03T00:11:15;23.50;62.00
45491;DHT22;31237;45.586;13.782;2022-08-03T00:13:41;23.50;61.40
45491;DHT22;31237;45.586;13.782;2022-08-03T00:16:08;23.50;61.40
45491;DHT22;31237;45.586;13.782;2022-08-03T00:18:35;23.50;61.50
45491;DHT22;31237;45.586;13.782;2022-08-03T00:21:01;23.50;61.60
45491;DHT22;31237;45.586;13.782;2022-08-03T00:23:27;23.50;61.80
45491;DHT22;31237;45.586;13.782;2022-08-03T00:25:53;23.50;62.10
45491;DHT22;31237;45.586;13.782;2022-08-03T00:28:18;23.40;62.20
45491;DHT22;31237;45.586;13.782;2022-08-03T00:30:44;23.40;62.40
45491;DHT22;31237;45.586;13.782;2022-08-03T00:33:10;23.30;62.50
45491;DHT22;31237;45.586;13.782;2022-08-03T00:35:35;23.40;62.70
45491;DHT22;31237;45.586;13.782;2022-08-03T00:38:01;23.30;62.80
45491;DHT22;31237;45.586;13.782;2022-08-03T00:40:27;23.30;63.10
45491;DHT22;31237;45.586;13.782;2022-08-03T00:42:56;23.20;63.20
45491;DHT22;31237;45.586;13.782;2022-08-03T00:45:34;23.20;63.30
45491;DHT22;31237;45.586;13.782;2022-08-03T00:48:01;23.20;63.40
45491;DHT22;31237;45.586;13.782;2022-08-03T00:50:29;23.20;63.70
45491;DHT22;31237;45.586;13.782;2022-08-03T00:52:57;23.20;63.90
45491;DHT22;31237;45.586;13.782;2022-08-03T00:55:23;23.20;64.20
45491;DHT22;31237;45.586;13.782;2022-08-03T00:57:49;23.10;64.40
45491;DHT22;31237;45.586;13.782;2022-08-03T01:00:20;23.10;64.50
45491;DHT22;31237;45.586;13.782;2022-08-03T01:02:46;23.10;64.60
45491;DHT22;31237;45.586;13.782;2022-08-03T01:05:12;23.10;64.90
45491;DHT22;31237;45.586;13.782;2022-08-03T01:08:05;23.10;65.00
45491;DHT22;31237;45.586;13.782;2022-08-03T01:10:36;23.10;65.10
45491;DHT22;31237;45.586;13.782;2022-08-03T01:18:35;23.10;65.50
45491;DHT22;31237;45.586;13.782;2022-08-03T01:21:08;23.10;65.70
45491;DHT22;31237;45.586;13.782;2022-08-03T01:31:52;23.10;66.00
45491;DHT22;31237;45.586;13.782;2022-08-03T01:34:22;23.10;66.10
45491;DHT22;31237;45.586;13.782;2022-08-03T01:36:52;23.00;66.20
45491;DHT22;31237;45.586;13.782;2022-08-03T01:39:21;23.00;66.20
45491;DHT22;31237;45.586;13.782;2022-08-03T01:41:52;23.00;66.20
45491;DHT22;31237;45.586;13.782;2022-08-03T01:44:25;23.00;66.20
45491;DHT22;31237;45.586;13.782;2022-08-03T01:46:58;23.00;66.30
45491;DHT22;31237;45.586;13.782;2022-08-03T01:49:26;22.90;66.40
45491;DHT22;31237;45.586;13.782;2022-08-03T01:51:53;22.90;66.50
45491;DHT22;31237;45.586;13.782;2022-08-03T01:54:20;22.90;66.60
45491;DHT22;31237;45.586;13.782;2022-08-03T01:56:48;22.90;66.70
45491;DHT22;31237;45.586;13.782;2022-08-03T01:59:16;22.90;66.80
45491;DHT22;31237;45.586;13.782;2022-08-03T02:01:44;22.90;66.90
45491;DHT22;31237;45.586;13.782;2022-08-03T02:04:14;22.90;66.90
45491;DHT22;31237;45.586;13.782;2022-08-03T02:06:44;22.90;67.00
45491;DHT22;31237;45.586;13.782;2022-08-03T02:09:12;22.90;67.10
45491;DHT22;31237;45.586;13.782;2022-08-03T02:11:39;22.80;67.20
45491;DHT22;31237;45.586;13.782;2022-08-03T02:14:07;22.80;67.20
45491;DHT22;31237;45.586;13.782;2022-08-03T02:16:34;22.90;67.30
45491;DHT22;31237;45.586;13.782;2022-08-03T02:19:03;22.80;67.20
45491;DHT22;31237;45.586;13.782;2022-08-03T02:21:31;22.90;67.40
45491;DHT22;31237;45.586;13.782;2022-08-03T02:23:58;22.80;67.30
45491;DHT22;31237;45.586;13.782;2022-08-03T02:26:28;22.90;67.30
45491;DHT22;31237;45.586;13.782;2022-08-03T02:28:55;22.80;67.20
45491;DHT22;31237;45.586;13.782;2022-08-03T02:31:26;22.80;67.30
45491;DHT22;31237;45.586;13.782;2022-08-03T02:33:57;22.80;67.30
45491;DHT22;31237;45.586;13.782;2022-08-03T02:36:27;22.80;67.30
45491;DHT22;31237;45.586;13.782;2022-08-03T02:38:57;22.90;67.30
45491;DHT22;31237;45.586;13.782;2022-08-03T02:41:28;22.90;67.20
45491;DHT22;31237;45.586;13.782;2022-08-03T02:43:56;22.90;67.10
45491;DHT22;31237;45.586;13.782;2022-08-03T02:46:29;22.90;67.00
45491;DHT22;31237;45.586;13.782;2022-08-03T02:48:59;22.90;67.00
45491;DHT22;31237;45.586;13.782;2022-08-03T02:51:29;22.90;67.00
45491;DHT22;31237;45.586;13.782;2022-08-03T02:53:58;22.90;67.10
45491;DHT22;31237;45.586;13.782;2022-08-03T02:56:24;22.90;67.70
45491;DHT22;31237;45.586;13.782;2022-08-03T02:58:52;22.90;67.00
45491;DHT22;31237;45.586;13.782;2022-08-03T03:01:21;22.90;67.00
45491;DHT22;31237;45.586;13.782;2022-08-03T03:03:49;22.90;67.10
45491;DHT22;31237;45.586;13.782;2022-08-03T03:06:16;22.90;67.20
45491;DHT22;31237;45.586;13.782;2022-08-03T03:08:44;22.80;67.10
45491;DHT22;31237;45.586;13.782;2022-08-03T03:11:12;22.80;67.10
45491;DHT22;31237;45.586;13.782;2022-08-03T03:13:41;22.80;67.20
45491;DHT22;31237;45.586;13.782;2022-08-03T03:16:08;22.80;67.30
45491;DHT22;31237;45.586;13.782;2022-08-03T03:18:37;22.80;67.30
45491;DHT22;31237;45.586;13.782;2022-08-03T03:21:04;22.80;67.30
45491;DHT22;31237;45.586;13.782;2022-08-03T03:23:35;22.80;67.40
45491;DHT22;31237;45.586;13.782;2022-08-03T03:26:02;22.80;67.40
45491;DHT22;31237;45.586;13.782;2022-08-03T03:28:28;22.80;67.50
45491;DHT22;31237;45.586;13.782;2022-08-03T03:30:55;22.80;67.50
45491;DHT22;31237;45.586;13.782;2022-08-03T03:33:21;22.80;67.60
45491;DHT22;31237;45.586;13.782;2022-08-03T03:35:47;22.70;67.70
45491;DHT22;31237;45.586;13.782;2022-08-03T03:38:13;22.70;67.70
45491;DHT22;31237;45.586;13.782;2022-08-03T03:40:39;22.70;67.80
45491;DHT22;31237;45.586;13.782;2022-08-03T03:43:12;22.60;67.90
45491;DHT22;31237;45.586;13.782;2022-08-03T03:45:40;22.60;68.10
45491;DHT22;31237;45.586;13.782;2022-08-03T03:48:07;22.50;68.20
45491;DHT22;31237;45.586;13.782;2022-08-03T03:50:34;22.50;68.30
45491;DHT22;31237;45.586;13.782;2022-08-03T03:53:01;22.50;68.50
45491;DHT22;31237;45.586;13.782;2022-08-03T03:55:27;22.40;68.40
45491;DHT22;31237;45.586;13.782;2022-08-03T03:57:53;22.40;68.40
45491;DHT22;31237;45.586;13.782;2022-08-03T04:00:19;22.40;68.50
45491;DHT22;31237;45.586;13.782;2022-08-03T04:02:45;22.40;68.50
45491;DHT22;31237;45.586;13.782;2022-08-03T04:05:11;22.40;68.60
45491;DHT22;31237;45.586;13.782;2022-08-03T04:08:13;22.40;68.70
45491;DHT22;31237;45.586;13.782;2022-08-03T04:14:18;22.40;68.60
45491;DHT22;31237;45.586;13.782;2022-08-03T04:16:48;22.40;68.40
45491;DHT22;31237;45.586;13.782;2022-08-03T04:19:35;22.50;68.40
45491;DHT22;31237;45.586;13.782;2022-08-03T04:22:08;22.50;68.20
45491;DHT22;31237;45.586;13.782;2022-08-03T04:24:42;22.60;68.20
45491;DHT22;31237;45.586;13.782;2022-08-03T04:27:11;22.60;68.10
45491;DHT22;31237;45.586;13.782;2022-08-03T04:29:41;22.60;68.10
45491;DHT22;31237;45.586;13.782;2022-08-03T04:32:09;22.70;68.10
45491;DHT22;31237;45.586;13.782;2022-08-03T04:34:35;22.80;68.10
45491;DHT22;31237;45.586;13.782;2022-08-03T04:37:08;22.70;68.00
45491;DHT22;31237;45.586;13.782;2022-08-03T04:39:36;22.80;68.10
45491;DHT22;31237;45.586;13.782;2022-08-03T04:42:06;22.70;68.10
45491;DHT22;31237;45.586;13.782;2022-08-03T04:44:36;22.70;68.20
45491;DHT22;31237;45.586;13.782;2022-08-03T04:47:02;22.70;68.20
45491;DHT22;31237;45.586;13.782;2022-08-03T04:49:29;22.70;68.30
45491;DHT22;31237;45.586;13.782;2022-08-03T04:51:55;22.70;68.50
45491;DHT22;31237;45.586;13.782;2022-08-03T04:54:21;22.60;68.60
45491;DHT22;31237;45.586;13.782;2022-08-03T04:56:47;22.60;68.70
45491;DHT22;31237;45.586;13.782;2022-08-03T04:59:13;22.60;69.00
45491;DHT22;31237;45.586;13.782;2022-08-03T05:01:39;22.50;69.10
45491;DHT22;31237;45.586;13.782;2022-08-03T05:04:06;22.50;69.20
45491;DHT22;31237;45.586;13.782;2022-08-03T05:06:32;22.50;69.50
45491;DHT22;31237;45.586;13.782;2022-08-03T05:08:58;22.50;69.60
45491;DHT22;31237;45.586;13.782;2022-08-03T05:11:23;22.60;69.80
45491;DHT22;31237;45.586;13.782;2022-08-03T05:13:49;22.60;69.90
45491;DHT22;31237;45.586;13.782;2022-08-03T05:16:15;22.70;69.90
45491;DHT22;31237;45.586;13.782;2022-08-03T05:18:41;22.80;69.90
45491;DHT22;31237;45.586;13.782;2022-08-03T05:21:10;22.80;69.70
45491;DHT22;31237;45.586;13.782;2022-08-03T05:23:39;22.90;69.80
45491;DHT22;31237;45.586;13.782;2022-08-03T05:26:04;23.00;69.80
45491;DHT22;31237;45.586;13.782;2022-08-03T05:28:30;23.00;69.70
45491;DHT22;31237;45.586;13.782;2022-08-03T05:30:56;23.10;69.60
45491;DHT22;31237;45.586;13.782;2022-08-03T05:33:22;23.20;69.40
45491;DHT22;31237;45.586;13.782;2022-08-03T05:35:47;23.30;69.30
45491;DHT22;31237;45.586;13.782;2022-08-03T05:38:13;23.40;69.10
45491;DHT22;31237;45.586;13.782;2022-08-03T05:40:39;23.50;69.00
45491;DHT22;31237;45.586;13.782;2022-08-03T05:43:04;23.50;68.70
45491;DHT22;31237;45.586;13.782;2022-08-03T05:45:30;23.60;68.50
45491;DHT22;31237;45.586;13.782;2022-08-03T05:47:56;23.80;68.30
45491;DHT22;31237;45.586;13.782;2022-08-03T05:50:21;23.90;67.90
45491;DHT22;31237;45.586;13.782;2022-08-03T05:52:47;24.00;67.70
45491;DHT22;31237;45.586;13.782;2022-08-03T05:55:13;24.10;67.50
45491;DHT22;31237;45.586;13.782;2022-08-03T05:57:39;24.20;67.20
45491;DHT22;31237;45.586;13.782;2022-08-03T06:00:08;24.30;67.00
45491;DHT22;31237;45.586;13.782;2022-08-03T06:02:34;24.40;66.70
45491;DHT22;31237;45.586;13.782;2022-08-03T06:05:00;24.50;66.50
45491;DHT22;31237;45.586;13.782;2022-08-03T06:07:26;24.60;66.30
45491;DHT22;31237;45.586;13.782;2022-08-03T06:09:52;24.70;66.10
45491;DHT22;31237;45.586;13.782;2022-08-03T06:12:18;24.80;65.80
45491;DHT22;31237;45.586;13.782;2022-08-03T06:14:44;24.90;65.40
45491;DHT22;31237;45.586;13.782;2022-08-03T06:17:10;25.00;65.30
45491;DHT22;31237;45.586;13.782;2022-08-03T06:19:36;25.10;65.20
45491;DHT22;31237;45.586;13.782;2022-08-03T06:22:02;25.20;64.80
45491;DHT22;31237;45.586;13.782;2022-08-03T06:24:27;25.30;64.40
45491;DHT22;31237;45.586;13.782;2022-08-03T06:26:53;25.40;64.20
45491;DHT22;31237;45.586;13.782;2022-08-03T06:29:19;25.50;64.00
45491;DHT22;31237;45.586;13.782;2022-08-03T06:31:45;25.60;63.70
45491;DHT22;31237;45.586;13.782;2022-08-03T06:34:11;25.60;63.50
45491;DHT22;31237;45.586;13.782;2022-08-03T06:36:36;25.70;63.20
45491;DHT22;31237;45.586;13.782;2022-08-03T06:39:03;25.90;63.00
45491;DHT22;31237;45.586;13.782;2022-08-03T06:41:28;25.90;62.70
45491;DHT22;31237;45.586;13.782;2022-08-03T06:43:54;26.00;62.50
45491;DHT22;31237;45.586;13.782;2022-08-03T06:46:20;26.10;62.40
45491;DHT22;31237;45.586;13.782;2022-08-03T06:48:47;26.20;62.20
45491;DHT22;31237;45.586;13.782;2022-08-03T06:51:12;26.30;62.00
45491;DHT22;31237;45.586;13.782;2022-08-03T06:53:38;26.40;62.10
45491;DHT22;31237;45.586;13.782;2022-08-03T06:56:05;26.50;61.80
45491;DHT22;31237;45.586;13.782;2022-08-03T06:58:30;26.60;61.20
45491;DHT22;31237;45.586;13.782;2022-08-03T07:00:56;26.70;60.80
45491;DHT22;31237;45.586;13.782;2022-08-03T07:03:22;26.80;60.40
45491;DHT22;31237;45.586;13.782;2022-08-03T07:05:48;26.90;60.00
45491;DHT22;31237;45.586;13.782;2022-08-03T07:08:15;27.00;59.60
45491;DHT22;31237;45.586;13.782;2022-08-03T07:10:42;27.10;59.60
45491;DHT22;31237;45.586;13.782;2022-08-03T07:13:08;27.30;59.40
45491;DHT22;31237;45.586;13.782;2022-08-03T07:15:34;27.30;58.90
45491;DHT22;31237;45.586;13.782;2022-08-03T07:18:00;27.40;58.70
45491;DHT22;31237;45.586;13.782;2022-08-03T07:20:25;27.60;58.70
45491;DHT22;31237;45.586;13.782;2022-08-03T07:22:51;27.70;58.20
45491;DHT22;31237;45.586;13.782;2022-08-03T07:25:17;27.80;58.00
45491;DHT22;31237;45.586;13.782;2022-08-03T07:27:43;27.90;57.50
45491;DHT22;31237;45.586;13.782;2022-08-03T07:30:10;28.10;57.50
45491;DHT22;31237;45.586;13.782;2022-08-03T07:32:36;28.20;57.40
45491;DHT22;31237;45.586;13.782;2022-08-03T07:35:02;28.30;57.20
45491;DHT22;31237;45.586;13.782;2022-08-03T07:37:29;28.50;57.10
45491;DHT22;31237;45.586;13.782;2022-08-03T07:39:55;28.60;56.70
45491;DHT22;31237;45.586;13.782;2022-08-03T07:42:21;28.80;56.30
45491;DHT22;31237;45.586;13.782;2022-08-03T07:44:48;28.90;55.80
45491;DHT22;31237;45.586;13.782;2022-08-03T07:47:22;29.00;55.50
45491;DHT22;31237;45.586;13.782;2022-08-03T07:49:47;29.10;55.30
45491;DHT22;31237;45.586;13.782;2022-08-03T07:52:16;29.20;55.10
45491;DHT22;31237;45.586;13.782;2022-08-03T07:55:00;29.40;54.90
45491;DHT22;31237;45.586;13.782;2022-08-03T07:57:26;29.50;54.60
45491;DHT22;31237;45.586;13.782;2022-08-03T07:59:51;29.70;54.40
45491;DHT22;31237;45.586;13.782;2022-08-03T08:02:17;29.80;54.00
45491;DHT22;31237;45.586;13.782;2022-08-03T08:04:43;30.00;53.80
45491;DHT22;31237;45.586;13.782;2022-08-03T08:07:09;30.10;53.30
45491;DHT22;31237;45.586;13.782;2022-08-03T08:09:34;30.20;53.20
45491;DHT22;31237;45.586;13.782;2022-08-03T08:12:00;30.30;53.00
45491;DHT22;31237;45.586;13.782;2022-08-03T08:14:26;30.40;52.60
45491;DHT22;31237;45.586;13.782;2022-08-03T08:16:53;30.50;52.30
45491;DHT22;31237;45.586;13.782;2022-08-03T08:19:18;30.60;51.90
45491;DHT22;31237;45.586;13.782;2022-08-03T08:21:44;30.70;51.30
45491;DHT22;31237;45.586;13.782;2022-08-03T08:24:10;30.90;51.10
45491;DHT22;31237;45.586;13.782;2022-08-03T08:26:36;31.10;50.80
45491;DHT22;31237;45.586;13.782;2022-08-03T08:29:02;31.10;50.20
45491;DHT22;31237;45.586;13.782;2022-08-03T08:31:28;31.20;50.00
45491;DHT22;31237;45.586;13.782;2022-08-03T08:33:54;31.30;49.80
45491;DHT22;31237;45.586;13.782;2022-08-03T08:36:19;31.40;49.70
45491;DHT22;31237;45.586;13.782;2022-08-03T08:38:45;31.60;49.70
45491;DHT22;31237;45.586;13.782;2022-08-03T08:41:13;31.70;49.10
45491;DHT22;31237;45.586;13.782;2022-08-03T08:43:39;31.80;48.20
45491;DHT22;31237;45.586;13.782;2022-08-03T08:46:07;31.90;48.10
45491;DHT22;31237;45.586;13.782;2022-08-03T08:48:35;31.90;47.60
45491;DHT22;31237;45.586;13.782;2022-08-03T08:51:04;31.90;47.30
45491;DHT22;31237;45.586;13.782;2022-08-03T08:53:30;32.00;47.50
45491;DHT22;31237;45.586;13.782;2022-08-03T08:56:00;32.00;47.50
45491;DHT22;31237;45.586;13.782;2022-08-03T08:58:34;32.20;47.40
45491;DHT22;31237;45.586;13.782;2022-08-03T09:01:01;32.30;47.00
45491;DHT22;31237;45.586;13.782;2022-08-03T09:03:27;32.30;46.80
45491;DHT22;31237;45.586;13.782;2022-08-03T09:05:54;32.40;46.70
45491;DHT22;31237;45.586;13.782;2022-08-03T09:08:20;32.50;46.70
45491;DHT22;31237;45.586;13.782;2022-08-03T09:10:47;32.50;46.40
45491;DHT22;31237;45.586;13.782;2022-08-03T09:13:13;32.70;46.30
45491;DHT22;31237;45.586;13.782;2022-08-03T09:15:39;32.80;45.80
45491;DHT22;31237;45.586;13.782;2022-08-03T09:18:06;32.90;45.50
45491;DHT22;31237;45.586;13.782;2022-08-03T09:20:34;32.90;45.00
45491;DHT22;31237;45.586;13.782;2022-08-03T09:23:06;33.00;44.80
45491;DHT22;31237;45.586;13.782;2022-08-03T09:28:09;33.00;44.50
45491;DHT22;31237;45.586;13.782;2022-08-03T09:30:38;33.10;44.80
45491;DHT22;31237;45.586;13.782;2022-08-03T09:33:07;33.10;44.20
45491;DHT22;31237;45.586;13.782;2022-08-03T09:35:39;33.20;44.20
45491;DHT22;31237;45.586;13.782;2022-08-03T09:38:16;33.30;43.70
45491;DHT22;31237;45.586;13.782;2022-08-03T09:40:43;33.40;43.10
45491;DHT22;31237;45.586;13.782;2022-08-03T09:43:10;33.50;43.40
45491;DHT22;31237;45.586;13.782;2022-08-03T09:45:37;33.50;43.00
45491;DHT22;31237;45.586;13.782;2022-08-03T09:48:25;33.60;42.80
45491;DHT22;31237;45.586;13.782;2022-08-03T09:50:54;33.70;42.60
45491;DHT22;31237;45.586;13.782;2022-08-03T09:53:22;33.70;42.40
45491;DHT22;31237;45.586;13.782;2022-08-03T09:55:52;33.70;42.50
45491;DHT22;31237;45.586;13.782;2022-08-03T09:58:20;33.80;42.10
45491;DHT22;31237;45.586;13.782;2022-08-03T10:01:00;33.70;41.50
45491;DHT22;31237;45.586;13.782;2022-08-03T10:03:30;33.80;41.70
45491;DHT22;31237;45.586;13.782;2022-08-03T10:05:56;33.90;41.40
45491;DHT22;31237;45.586;13.782;2022-08-03T10:08:22;33.90;41.30
45491;DHT22;31237;45.586;13.782;2022-08-03T10:10:50;34.00;41.70
45491;DHT22;31237;45.586;13.782;2022-08-03T10:13:20;34.10;41.30
45491;DHT22;31237;45.586;13.782;2022-08-03T10:15:46;34.30;41.80
45491;DHT22;31237;45.586;13.782;2022-08-03T10:18:12;34.40;40.80
45491;DHT22;31237;45.586;13.782;2022-08-03T10:21:01;34.40;40.70
45491;DHT22;31237;45.586;13.782;2022-08-03T10:23:32;34.40;40.70
45491;DHT22;31237;45.586;13.782;2022-08-03T10:26:01;34.30;40.70
45491;DHT22;31237;45.586;13.782;2022-08-03T10:28:39;34.30;41.10
45491;DHT22;31237;45.586;13.782;2022-08-03T10:31:05;34.50;41.10
45491;DHT22;31237;45.586;13.782;2022-08-03T10:33:36;34.60;41.00
45491;DHT22;31237;45.586;13.782;2022-08-03T10:36:05;34.80;40.90
45491;DHT22;31237;45.586;13.782;2022-08-03T10:38:43;34.90;40.70
45491;DHT22;31237;45.586;13.782;2022-08-03T10:41:12;35.10;40.30
45491;DHT22;31237;45.586;13.782;2022-08-03T10:43:46;35.20;40.00
45491;DHT22;31237;45.586;13.782;2022-08-03T10:46:15;35.30;39.60
45491;DHT22;31237;45.586;13.782;2022-08-03T10:48:42;35.50;39.50
45491;DHT22;31237;45.586;13.782;2022-08-03T10:51:08;35.60;38.90
45491;DHT22;31237;45.586;13.782;2022-08-03T10:53:41;35.50;38.70
45491;DHT22;31237;45.586;13.782;2022-08-03T10:59:18;35.10;38.60
45491;DHT22;31237;45.586;13.782;2022-08-03T11:01:56;34.90;38.80
45491;DHT22;31237;45.586;13.782;2022-08-03T11:04:23;34.70;38.50
45491;DHT22;31237;45.586;13.782;2022-08-03T11:07:18;34.50;38.70
45491;DHT22;31237;45.586;13.782;2022-08-03T11:09:46;34.40;40.20
45491;DHT22;31237;45.586;13.782;2022-08-03T11:12:31;34.30;40.80
45491;DHT22;31237;45.586;13.782;2022-08-03T11:15:05;34.20;39.80
45491;DHT22;31237;45.586;13.782;2022-08-03T11:17:33;34.20;39.90
45491;DHT22;31237;45.586;13.782;2022-08-03T11:19:59;34.30;39.60
45491;DHT22;31237;45.586;13.782;2022-08-03T11:22:25;34.30;39.70
45491;DHT22;31237;45.586;13.782;2022-08-03T11:25:10;34.40;40.00
45491;DHT22;31237;45.586;13.782;2022-08-03T11:27:39;34.50;40.00
45491;DHT22;31237;45.586;13.782;2022-08-03T11:35:32;34.60;40.30
45491;DHT22;31237;45.586;13.782;2022-08-03T11:38:03;34.60;41.40
45491;DHT22;31237;45.586;13.782;2022-08-03T11:46:06;34.20;45.40
45491;DHT22;31237;45.586;13.782;2022-08-03T11:48:37;34.00;46.50
45491;DHT22;31237;45.586;13.782;2022-08-03T11:51:07;33.90;46.40
45491;DHT22;31237;45.586;13.782;2022-08-03T11:53:43;33.80;46.00
45491;DHT22;31237;45.586;13.782;2022-08-03T11:56:09;33.60;48.70
45491;DHT22;31237;45.586;13.782;2022-08-03T11:58:35;33.40;49.10
45491;DHT22;31237;45.586;13.782;2022-08-03T12:01:05;33.20;50.10
45491;DHT22;31237;45.586;13.782;2022-08-03T12:03:35;33.00;48.80
45491;DHT22;31237;45.586;13.782;2022-08-03T12:06:01;32.90;46.90
45491;DHT22;31237;45.586;13.782;2022-08-03T12:08:30;32.80;47.10
45491;DHT22;31237;45.586;13.782;2022-08-03T12:10:59;32.60;46.80
45491;DHT22;31237;45.586;13.782;2022-08-03T12:13:25;32.50;46.80
45491;DHT22;31237;45.586;13.782;2022-08-03T12:16:00;32.40;46.70
45491;DHT22;31237;45.586;13.782;2022-08-03T12:18:26;32.40;46.10
45491;DHT22;31237;45.586;13.782;2022-08-03T12:20:54;32.40;45.20
45491;DHT22;31237;45.586;13.782;2022-08-03T12:23:27;32.30;44.70
45491;DHT22;31237;45.586;13.782;2022-08-03T12:26:01;32.20;43.20
45491;DHT22;31237;45.586;13.782;2022-08-03T12:28:27;32.10;43.60
45491;DHT22;31237;45.586;13.782;2022-08-03T12:30:52;32.00;44.10
45491;DHT22;31237;45.586;13.782;2022-08-03T12:33:23;31.90;44.70
45491;DHT22;31237;45.586;13.782;2022-08-03T12:36:03;31.80;45.40
45491;DHT22;31237;45.586;13.782;2022-08-03T12:38:31;31.70;45.90
45491;DHT22;31237;45.586;13.782;2022-08-03T12:40:58;31.70;45.90
45491;DHT22;31237;45.586;13.782;2022-08-03T12:43:25;31.70;44.50
45491;DHT22;31237;45.586;13.782;2022-08-03T12:45:51;31.70;42.90
45491;DHT22;31237;45.586;13.782;2022-08-03T12:48:16;31.60;43.10
45491;DHT22;31237;45.586;13.782;2022-08-03T12:50:42;31.60;42.10
45491;DHT22;31237;45.586;13.782;2022-08-03T12:53:09;31.60;41.40
45491;DHT22;31237;45.586;13.782;2022-08-03T12:55:37;31.60;42.40
45491;DHT22;31237;45.586;13.782;2022-08-03T12:58:05;31.60;43.10
45491;DHT22;31237;45.586;13.782;2022-08-03T13:00:34;31.60;42.20
45491;DHT22;31237;45.586;13.782;2022-08-03T13:03:02;31.70;41.70
45491;DHT22;31237;45.586;13.782;2022-08-03T13:05:30;31.60;41.90
45491;DHT22;31237;45.586;13.782;2022-08-03T13:07:56;31.60;42.50
45491;DHT22;31237;45.586;13.782;2022-08-03T13:10:30;31.60;42.50
45491;DHT22;31237;45.586;13.782;2022-08-03T13:12:57;31.50;42.60
45491;DHT22;31237;45.586;13.782;2022-08-03T13:15:25;31.50;42.70
45491;DHT22;31237;45.586;13.782;2022-08-03T13:17:53;31.50;42.90
45491;DHT22;31237;45.586;13.782;2022-08-03T13:20:19;31.50;43.10
45491;DHT22;31237;45.586;13.782;2022-08-03T13:22:46;31.40;43.10
45491;DHT22;31237;45.586;13.782;2022-08-03T13:25:12;31.40;43.40
45491;DHT22;31237;45.586;13.782;2022-08-03T13:27:38;31.40;43.10
45491;DHT22;31237;45.586;13.782;2022-08-03T13:30:05;31.40;43.40
45491;DHT22;31237;45.586;13.782;2022-08-03T13:32:32;31.50;43.60
45491;DHT22;31237;45.586;13.782;2022-08-03T13:34:57;31.40;43.80
45491;DHT22;31237;45.586;13.782;2022-08-03T13:37:24;31.40;43.80
45491;DHT22;31237;45.586;13.782;2022-08-03T13:39:49;31.30;43.70
45491;DHT22;31237;45.586;13.782;2022-08-03T13:42:15;31.30;43.90
45491;DHT22;31237;45.586;13.782;2022-08-03T13:44:41;31.30;44.40
45491;DHT22;31237;45.586;13.782;2022-08-03T13:47:07;31.20;46.00
45491;DHT22;31237;45.586;13.782;2022-08-03T13:49:33;31.30;46.80
45491;DHT22;31237;45.586;13.782;2022-08-03T13:51:59;31.30;47.20
45491;DHT22;31237;45.586;13.782;2022-08-03T13:54:25;31.40;48.20
45491;DHT22;31237;45.586;13.782;2022-08-03T13:56:54;31.50;49.30
45491;DHT22;31237;45.586;13.782;2022-08-03T13:59:22;31.50;50.10
45491;DHT22;31237;45.586;13.782;2022-08-03T14:01:49;31.40;49.60
45491;DHT22;31237;45.586;13.782;2022-08-03T14:04:15;31.20;49.30
45491;DHT22;31237;45.586;13.782;2022-08-03T14:06:42;31.10;49.30
45491;DHT22;31237;45.586;13.782;2022-08-03T14:09:12;31.00;49.20
45491;DHT22;31237;45.586;13.782;2022-08-03T14:11:40;30.90;49.40
45491;DHT22;31237;45.586;13.782;2022-08-03T14:14:05;30.90;48.10
45491;DHT22;31237;45.586;13.782;2022-08-03T14:16:31;30.90;47.70
45491;DHT22;31237;45.586;13.782;2022-08-03T14:18:57;30.90;46.90
45491;DHT22;31237;45.586;13.782;2022-08-03T14:21:32;30.90;46.30
45491;DHT22;31237;45.586;13.782;2022-08-03T14:23:59;31.00;45.20
45491;DHT22;31237;45.586;13.782;2022-08-03T14:26:24;31.00;45.60
45491;DHT22;31237;45.586;13.782;2022-08-03T14:28:50;31.00;45.30
45491;DHT22;31237;45.586;13.782;2022-08-03T14:31:16;31.10;45.40
45491;DHT22;31237;45.586;13.782;2022-08-03T14:33:42;31.20;45.70
45491;DHT22;31237;45.586;13.782;2022-08-03T14:36:08;31.20;46.40
45491;DHT22;31237;45.586;13.782;2022-08-03T14:38:33;31.20;47.10
45491;DHT22;31237;45.586;13.782;2022-08-03T14:40:59;31.20;46.60
45491;DHT22;31237;45.586;13.782;2022-08-03T14:43:25;31.10;46.80
45491;DHT22;31237;45.586;13.782;2022-08-03T14:45:51;31.10;47.00
45491;DHT22;31237;45.586;13.782;2022-08-03T14:48:19;31.10;47.30
45491;DHT22;31237;45.586;13.782;2022-08-03T14:50:45;31.10;47.40
45491;DHT22;31237;45.586;13.782;2022-08-03T14:53:11;31.10;47.60
45491;DHT22;31237;45.586;13.782;2022-08-03T14:55:37;31.10;47.40
45491;DHT22;31237;45.586;13.782;2022-08-03T14:58:02;31.20;47.10
45491;DHT22;31237;45.586;13.782;2022-08-03T15:00:34;31.20;46.60
45491;DHT22;31237;45.586;13.782;2022-08-03T15:03:01;31.20;45.80
45491;DHT22;31237;45.586;13.782;2022-08-03T15:05:27;31.20;45.70
45491;DHT22;31237;45.586;13.782;2022-08-03T15:07:53;31.10;45.70
45491;DHT22;31237;45.586;13.782;2022-08-03T15:10:19;31.10;45.80
45491;DHT22;31237;45.586;13.782;2022-08-03T15:12:44;31.10;46.00
45491;DHT22;31237;45.586;13.782;2022-08-03T15:15:10;31.20;45.80
45491;DHT22;31237;45.586;13.782;2022-08-03T15:17:36;31.20;45.30
45491;DHT22;31237;45.586;13.782;2022-08-03T15:20:03;31.20;45.00
45491;DHT22;31237;45.586;13.782;2022-08-03T15:22:29;31.20;45.50
45491;DHT22;31237;45.586;13.782;2022-08-03T15:24:55;31.20;45.70
45491;DHT22;31237;45.586;13.782;2022-08-03T15:27:22;31.20;45.20
45491;DHT22;31237;45.586;13.782;2022-08-03T15:29:47;31.20;45.70
45491;DHT22;31237;45.586;13.782;2022-08-03T15:32:13;31.20;46.00
45491;DHT22;31237;45.586;13.782;2022-08-03T15:34:39;31.20;45.40
45491;DHT22;31237;45.586;13.782;2022-08-03T15:37:05;31.20;44.90
45491;DHT22;31237;45.586;13.782;2022-08-03T15:39:31;31.10;44.60
45491;DHT22;31237;45.586;13.782;2022-08-03T15:41:56;31.10;44.70
45491;DHT22;31237;45.586;13.782;2022-08-03T15:44:22;31.10;44.20
45491;DHT22;31237;45.586;13.782;2022-08-03T15:46:48;31.00;44.00
45491;DHT22;31237;45.586;13.782;2022-08-03T15:49:13;31.00;44.30
45491;DHT22;31237;45.586;13.782;2022-08-03T15:51:39;31.00;44.90
45491;DHT22;31237;45.586;13.782;2022-08-03T15:54:06;31.00;45.40